Terminal Aerodrome Forecast
Issued by NWS

Current Version | Previous Version | Text Only | Print | Product List | Glossary Off
Versions: 1 2 3 4 5 6 7 8 9 10 11 12 13 14 15 16

836
FTUS42 KMHX 241734
TAFOAJ
TAF
KOAJ 241734Z 2418/2518 23008KT P6SM VCTS BKN035CB
      TEMPO 2419/2423 5SM TS OVC025CB
     FM250100 21006KT P6SM BKN140
      AMD LTD TO CLD VIS AND WIND=

USA.gov is the U.S. government's official web portal to all federal, state and local government web resources and services.